Time;durP1;ratioP1;P1;durP2;ratioP2;P2;SDS_P1;SDS_P2;PMS_P1;PMS_P2;Temp;Humidity;BMP_temperature;BMP_pressure;BME280_temperature;BME280_humidity;BME280_pressure;Samples;Min_cycle;Max_cycle;Signal;HPM_P1;HPM_P2
2023/08/16 00:01:44;;;;;;;8.70;2.78;;;;;;;;;;5076159;28;20058;-60
2023/08/16 00:04:10;;;;;;;9.65;3.17;;;;;;;;;;5086208;28;20047;-60
2023/08/16 00:06:41;;;;;;;7.80;3.15;;;;;;;;;;5087229;28;20048;-58
2023/08/16 00:09:08;;;;;;;9.65;3.05;;;;;;;;;;5085125;28;20098;-60
2023/08/16 00:11:34;;;;;;;10.00;3.28;;;;;;;;;;5087387;28;20508;-60
2023/08/16 00:14:01;;;;;;;8.88;3.13;;;;;;;;;;5086328;28;20097;-60
2023/08/16 00:16:26;;;;;;;6.90;3.05;;;;;;;;;;5081331;28;20052;-58
2023/08/16 00:18:52;;;;;;;7.97;2.90;;;;;;;;;;5076335;28;20055;-59
2023/08/16 00:21:18;;;;;;;8.65;2.97;;;;;;;;;;5074454;28;20044;-63
2023/08/16 00:23:44;;;;;;;13.93;3.15;;;;;;;;;;5073402;28;20620;-58
2023/08/16 00:26:10;;;;;;;6.55;2.80;;;;;;;;;;5074605;28;20048;-64
2023/08/16 00:28:36;;;;;;;7.65;2.75;;;;;;;;;;5073954;28;20060;-61
2023/08/16 00:31:02;;;;;;;10.02;3.03;;;;;;;;;;5081643;28;20479;-58
2023/08/16 00:33:28;;;;;;;13.50;3.00;;;;;;;;;;5072129;28;20101;-59
2023/08/16 00:35:54;;;;;;;10.13;2.95;;;;;;;;;;5075149;28;20055;-61
2023/08/16 00:38:20;;;;;;;9.50;3.10;;;;;;;;;;5077436;28;20102;-61
2023/08/16 00:40:52;;;;;;;5.50;2.63;;;;;;;;;;5076438;28;20098;-59
2023/08/16 00:43:18;;;;;;;9.57;3.00;;;;;;;;;;5075194;28;20054;-60
2023/08/16 00:45:45;;;;;;;11.25;3.35;;;;;;;;;;5076499;28;20040;-61
2023/08/16 00:48:13;;;;;;;10.27;3.05;;;;;;;;;;5074153;28;20052;-60
2023/08/16 00:50:39;;;;;;;11.55;3.03;;;;;;;;;;5074223;28;20059;-57
2023/08/16 00:53:06;;;;;;;14.43;3.20;;;;;;;;;;5073170;28;20037;-58
2023/08/16 00:55:33;;;;;;;12.85;3.05;;;;;;;;;;5073670;28;20136;-55
2023/08/16 00:57:59;;;;;;;13.43;3.05;;;;;;;;;;5075353;28;20072;-61
2023/08/16 01:00:27;;;;;;;12.07;3.17;;;;;;;;;;5077806;28;20039;-59
2023/08/16 01:02:53;;;;;;;8.63;2.83;;;;;;;;;;5074014;28;20052;-60
2023/08/16 01:05:20;;;;;;;12.30;3.38;;;;;;;;;;5076119;28;20048;-59
2023/08/16 01:07:46;;;;;;;13.70;2.92;;;;;;;;;;5074694;28;20044;-59
2023/08/16 01:10:12;;;;;;;7.35;3.22;;;;;;;;;;5075452;28;20136;-59
2023/08/16 01:12:55;;;;;;;11.00;3.33;;;;;;;;;;5071098;28;20134;-60
2023/08/16 01:15:32;;;;;;;9.88;2.92;;;;;;;;;;5074759;28;20048;-61
2023/08/16 01:18:00;;;;;;;6.90;2.67;;;;;;;;;;5075939;28;20055;-61
2023/08/16 01:20:28;;;;;;;6.82;3.03;;;;;;;;;;5075486;28;20063;-62
2023/08/16 01:23:11;;;;;;;7.28;3.15;;;;;;;;;;5073463;28;20063;-61
2023/08/16 01:26:01;;;;;;;6.88;3.35;;;;;;;;;;5077358;28;20660;-59
2023/08/16 01:28:29;;;;;;;8.30;3.10;;;;;;;;;;5076179;28;20067;-60
2023/08/16 01:31:03;;;;;;;13.80;3.42;;;;;;;;;;5072476;28;20046;-58
2023/08/16 01:33:29;;;;;;;7.65;3.55;;;;;;;;;;5069842;28;20051;-59
2023/08/16 01:35:55;;;;;;;10.18;3.65;;;;;;;;;;5070342;28;20051;-59
2023/08/16 01:39:01;;;;;;;8.15;3.65;;;;;;;;;;5070842;28;20518;-59
2023/08/16 01:42:41;;;;;;;8.35;3.55;;;;;;;;;;5078529;28;20036;-59
2023/08/16 01:46:21;;;;;;;8.10;3.72;;;;;;;;;;5076445;28;20044;-58
2023/08/16 01:50:02;;;;;;;7.55;3.03;;;;;;;;;;5072173;28;20208;-60
2023/08/16 01:53:42;;;;;;;9.48;3.65;;;;;;;;;;5079873;28;20045;-62
2023/08/16 01:57:22;;;;;;;8.60;3.10;;;;;;;;;;5074677;28;20129;-62
2023/08/16 02:01:03;;;;;;;9.77;3.55;;;;;;;;;;5074622;28;20523;-63
2023/08/16 02:04:43;;;;;;;9.75;3.42;;;;;;;;;;5076098;28;20446;-62
2023/08/16 02:08:23;;;;;;;10.73;3.97;;;;;;;;;;5076959;28;20052;-60
2023/08/16 02:12:04;;;;;;;9.90;3.50;;;;;;;;;;5076655;28;20098;-62
2023/08/16 02:15:44;;;;;;;9.48;3.53;;;;;;;;;;5073824;28;20053;-60
2023/08/16 02:19:25;;;;;;;9.73;3.70;;;;;;;;;;5075000;28;20435;-59
2023/08/16 02:23:05;;;;;;;10.40;3.60;;;;;;;;;;5072965;28;20052;-61
2023/08/16 02:26:46;;;;;;;9.30;3.65;;;;;;;;;;5076352;28;20131;-60
2023/08/16 02:30:26;;;;;;;10.88;3.70;;;;;;;;;;5073241;28;20531;-60
2023/08/16 02:34:06;;;;;;;11.60;3.80;;;;;;;;;;5078047;28;20036;-57
2023/08/16 02:37:47;;;;;;;8.35;3.70;;;;;;;;;;5074111;28;20471;-60
2023/08/16 02:41:27;;;;;;;9.70;3.20;;;;;;;;;;5079833;28;20048;-61
2023/08/16 02:45:07;;;;;;;11.13;3.42;;;;;;;;;;5072889;28;20109;-59
2023/08/16 02:48:47;;;;;;;10.02;3.35;;;;;;;;;;5075247;28;20100;-62
2023/08/16 02:52:28;;;;;;;8.43;3.60;;;;;;;;;;5079285;28;20047;-61
2023/08/16 02:56:08;;;;;;;8.90;3.80;;;;;;;;;;5073935;28;20052;-61
2023/08/16 02:59:48;;;;;;;11.40;4.00;;;;;;;;;;5072775;28;20048;-61
2023/08/16 03:03:29;;;;;;;10.30;3.70;;;;;;;;;;5078841;28;20550;-59
2023/08/16 03:07:09;;;;;;;6.53;3.15;;;;;;;;;;5077253;28;20257;-61
2023/08/16 03:10:49;;;;;;;11.02;4.03;;;;;;;;;;5071834;28;20047;-61
2023/08/16 03:14:30;;;;;;;10.60;4.07;;;;;;;;;;5075053;28;20055;-61
2023/08/16 03:18:10;;;;;;;8.43;3.55;;;;;;;;;;5075010;28;20040;-58
2023/08/16 03:21:50;;;;;;;10.85;4.10;;;;;;;;;;5077204;28;20775;-61
2023/08/16 03:25:31;;;;;;;10.57;4.07;;;;;;;;;;5076117;28;20407;-61
2023/08/16 03:29:11;;;;;;;10.95;4.10;;;;;;;;;;5074652;28;20083;-61
2023/08/16 03:32:52;;;;;;;10.02;4.00;;;;;;;;;;5075422;28;20480;-61
2023/08/16 03:36:32;;;;;;;9.82;4.18;;;;;;;;;;5072878;28;20048;-60
2023/08/16 03:40:14;;;;;;;9.55;4.05;;;;;;;;;;5071205;28;20037;-61
2023/08/16 03:43:52;;;;;;;12.27;3.90;;;;;;;;;;5080456;28;20456;-60
2023/08/16 03:47:33;;;;;;;10.75;3.88;;;;;;;;;;5071529;28;20048;-60
2023/08/16 03:51:13;;;;;;;10.68;4.40;;;;;;;;;;5075993;28;20516;-59
2023/08/16 03:54:54;;;;;;;15.52;4.43;;;;;;;;;;5072943;28;20232;-58
2023/08/16 03:58:34;;;;;;;10.48;4.80;;;;;;;;;;5072794;28;20056;-61
2023/08/16 04:02:14;;;;;;;15.00;4.80;;;;;;;;;;5075598;28;20119;-61
2023/08/16 04:05:54;;;;;;;12.30;4.43;;;;;;;;;;5074336;28;20037;-54
2023/08/16 04:09:35;;;;;;;11.82;4.78;;;;;;;;;;5076502;28;20040;-58
2023/08/16 04:13:15;;;;;;;10.75;4.63;;;;;;;;;;5073197;28;20068;-59
2023/08/16 04:16:55;;;;;;;7.78;4.57;;;;;;;;;;5072823;28;20048;-60
2023/08/16 04:20:36;;;;;;;14.32;5.05;;;;;;;;;;5068665;28;20040;-61
2023/08/16 04:24:16;;;;;;;14.25;4.80;;;;;;;;;;5076143;28;20040;-56
2023/08/16 04:27:56;;;;;;;13.48;5.20;;;;;;;;;;5076106;28;20132;-60
2023/08/16 04:31:37;;;;;;;11.85;5.85;;;;;;;;;;5071075;28;20101;-62
2023/08/16 04:35:17;;;;;;;12.90;5.40;;;;;;;;;;5069710;28;20468;-60
2023/08/16 04:38:57;;;;;;;12.77;5.47;;;;;;;;;;5074600;28;20092;-59
2023/08/16 04:42:38;;;;;;;11.75;5.95;;;;;;;;;;5073552;28;20608;-61
2023/08/16 04:46:18;;;;;;;13.15;5.30;;;;;;;;;;5073207;28;20106;-59
2023/08/16 04:49:58;;;;;;;15.55;5.50;;;;;;;;;;5070927;28;20139;-59
2023/08/16 04:53:38;;;;;;;14.25;5.70;;;;;;;;;;5074604;28;20040;-61
2023/08/16 04:57:19;;;;;;;11.07;4.50;;;;;;;;;;5072131;28;20051;-61
2023/08/16 05:00:59;;;;;;;12.75;4.97;;;;;;;;;;5074435;28;20136;-61
2023/08/16 05:04:40;;;;;;;9.30;4.53;;;;;;;;;;5072739;28;20032;-60
2023/08/16 05:08:20;;;;;;;12.82;4.40;;;;;;;;;;5074293;28;20469;-63
2023/08/16 05:12:00;;;;;;;10.27;4.03;;;;;;;;;;5072440;28;20070;-61
2023/08/16 05:15:41;;;;;;;12.73;4.18;;;;;;;;;;5069822;28;20514;-60
2023/08/16 05:19:21;;;;;;;10.75;3.95;;;;;;;;;;5071186;28;20044;-60
2023/08/16 05:23:01;;;;;;;11.93;4.05;;;;;;;;;;5070305;28;20126;-62
2023/08/16 05:26:42;;;;;;;10.93;4.20;;;;;;;;;;5070953;28;20143;-61
2023/08/16 05:29:59;;;;;;;12.10;4.00;;;;;;;;;;5074660;28;20132;-61
2023/08/16 05:33:05;;;;;;;13.68;3.95;;;;;;;;;;5073455;28;20067;-61
2023/08/16 05:36:45;;;;;;;14.60;4.07;;;;;;;;;;5070578;28;20063;-60
2023/08/16 05:40:26;;;;;;;14.90;4.35;;;;;;;;;;5069029;28;20048;-61
2023/08/16 05:44:06;;;;;;;21.50;4.15;;;;;;;;;;5072984;28;20384;-58
2023/08/16 05:47:46;;;;;;;12.57;4.35;;;;;;;;;;5074408;28;20056;-59
2023/08/16 05:51:26;;;;;;;12.68;4.25;;;;;;;;;;5072001;28;20411;-58
2023/08/16 05:55:07;;;;;;;10.85;3.90;;;;;;;;;;5071361;28;20135;-58
2023/08/16 05:58:47;;;;;;;16.10;4.63;;;;;;;;;;5071246;28;20497;-61
2023/08/16 06:02:04;;;;;;;15.63;4.13;;;;;;;;;;5069378;28;20051;-60
2023/08/16 06:04:30;;;;;;;9.63;3.60;;;;;;;;;;5074629;28;20586;-60
2023/08/16 06:06:56;;;;;;;11.45;3.78;;;;;;;;;;5070790;28;20052;-59
2023/08/16 06:09:22;;;;;;;10.63;3.63;;;;;;;;;;5072845;28;20052;-62
2023/08/16 06:11:47;;;;;;;11.05;3.88;;;;;;;;;;5069919;28;20500;-59
2023/08/16 06:14:13;;;;;;;9.98;3.75;;;;;;;;;;5075708;28;20059;-60
2023/08/16 06:16:39;;;;;;;18.40;3.75;;;;;;;;;;5067965;28;20044;-60
2023/08/16 06:19:05;;;;;;;12.50;4.05;;;;;;;;;;5069255;28;21104;-60
2023/08/16 06:21:31;;;;;;;12.25;3.95;;;;;;;;;;5072267;28;20044;-60
2023/08/16 06:23:57;;;;;;;11.23;3.83;;;;;;;;;;5071397;28;20048;-61
2023/08/16 06:26:23;;;;;;;13.55;3.60;;;;;;;;;;5073310;28;20264;-59
2023/08/16 06:28:49;;;;;;;11.85;4.13;;;;;;;;;;5070507;28;20036;-61
2023/08/16 06:31:15;;;;;;;9.90;3.60;;;;;;;;;;5069639;28;20071;-58
2023/08/16 06:33:41;;;;;;;11.18;3.55;;;;;;;;;;5080439;28;20056;-62
2023/08/16 06:36:07;;;;;;;13.82;4.18;;;;;;;;;;5071017;28;20390;-61
2023/08/16 06:38:33;;;;;;;12.38;3.75;;;;;;;;;;5070129;28;20056;-62
2023/08/16 06:40:59;;;;;;;11.75;3.72;;;;;;;;;;5076997;28;20052;-58
2023/08/16 06:43:25;;;;;;;12.30;3.53;;;;;;;;;;5073942;28;20086;-59
2023/08/16 06:45:51;;;;;;;11.98;3.30;;;;;;;;;;5070758;28;20053;-60
2023/08/16 06:48:17;;;;;;;13.85;3.67;;;;;;;;;;5074508;28;20491;-57
2023/08/16 06:50:45;;;;;;;14.85;4.22;;;;;;;;;;5075817;28;20037;-62
2023/08/16 06:53:11;;;;;;;14.10;3.70;;;;;;;;;;5074163;28;20040;-61
2023/08/16 06:55:37;;;;;;;9.23;3.70;;;;;;;;;;5075422;28;20053;-65
2023/08/16 06:58:06;;;;;;;10.20;3.75;;;;;;;;;;5078263;28;20047;-62
2023/08/16 07:00:33;;;;;;;13.00;3.40;;;;;;;;;;5079747;28;20048;-61
2023/08/16 07:03:02;;;;;;;11.18;3.20;;;;;;;;;;5077442;28;20052;-62
2023/08/16 07:05:28;;;;;;;6.95;3.00;;;;;;;;;;5080612;28;20079;-61
2023/08/16 07:07:55;;;;;;;12.57;3.72;;;;;;;;;;5073975;28;20044;-58
2023/08/16 07:10:21;;;;;;;11.35;3.10;;;;;;;;;;5074041;28;20047;-62
2023/08/16 07:12:48;;;;;;;9.82;3.72;;;;;;;;;;5077198;28;20059;-62
2023/08/16 07:15:14;;;;;;;11.55;3.22;;;;;;;;;;5077722;28;20488;-60
2023/08/16 07:17:40;;;;;;;9.05;3.45;;;;;;;;;;5076992;28;20074;-61
2023/08/16 07:20:09;;;;;;;12.65;3.80;;;;;;;;;;5075534;28;20573;-62
2023/08/16 07:22:39;;;;;;;8.93;3.38;;;;;;;;;;5074063;28;20186;-62
2023/08/16 07:25:07;;;;;;;7.97;3.45;;;;;;;;;;5078748;28;20048;-62
2023/08/16 07:27:33;;;;;;;16.20;4.03;;;;;;;;;;5073449;28;20680;-62
2023/08/16 07:29:59;;;;;;;11.80;3.35;;;;;;;;;;5075621;28;20076;-62
2023/08/16 07:32:26;;;;;;;14.20;3.78;;;;;;;;;;5077763;28;20048;-62
2023/08/16 07:34:51;;;;;;;14.57;3.35;;;;;;;;;;5073087;28;20408;-63
2023/08/16 07:37:18;;;;;;;12.68;3.67;;;;;;;;;;5074614;28;20062;-61
2023/08/16 07:39:47;;;;;;;14.13;4.05;;;;;;;;;;5075869;28;20052;-62
2023/08/16 07:42:13;;;;;;;14.57;3.83;;;;;;;;;;5074102;28;20044;-62
2023/08/16 07:44:38;;;;;;;15.55;4.18;;;;;;;;;;5070743;28;20044;-62
2023/08/16 07:47:05;;;;;;;12.80;3.97;;;;;;;;;;5075208;28;20157;-61
2023/08/16 07:49:31;;;;;;;13.63;4.10;;;;;;;;;;5076390;28;20044;-64
2023/08/16 07:51:57;;;;;;;12.65;3.80;;;;;;;;;;5081951;28;20415;-62
2023/08/16 07:54:24;;;;;;;16.02;4.03;;;;;;;;;;5070306;28;20923;-61
2023/08/16 07:56:51;;;;;;;13.20;4.10;;;;;;;;;;5073184;28;20079;-62
2023/08/16 07:59:16;;;;;;;12.00;4.07;;;;;;;;;;5070671;28;20040;-62
2023/08/16 08:01:43;;;;;;;14.25;3.55;;;;;;;;;;5075498;28;20128;-62
2023/08/16 08:04:09;;;;;;;15.65;3.95;;;;;;;;;;5080988;28;20048;-63
2023/08/16 08:06:36;;;;;;;9.70;4.38;;;;;;;;;;5086053;28;20396;-63
2023/08/16 08:09:02;;;;;;;8.90;3.13;;;;;;;;;;5085397;28;20074;-62
2023/08/16 08:11:28;;;;;;;17.55;4.28;;;;;;;;;;5083322;28;20160;-63
2023/08/16 08:13:54;;;;;;;20.65;4.18;;;;;;;;;;5080556;28;20098;-62
2023/08/16 08:16:20;;;;;;;13.95;3.90;;;;;;;;;;5076136;28;20054;-62
2023/08/16 08:18:46;;;;;;;16.08;3.80;;;;;;;;;;5081082;28;20055;-63
2023/08/16 08:21:14;;;;;;;11.57;3.72;;;;;;;;;;5083000;28;20114;-62
2023/08/16 08:23:40;;;;;;;11.02;3.90;;;;;;;;;;5088742;28;20044;-65
2023/08/16 08:26:06;;;;;;;16.48;3.78;;;;;;;;;;5081938;28;20114;-66
2023/08/16 08:29:12;;;;;;;16.00;3.33;;;;;;;;;;5077735;28;20051;-60
2023/08/16 08:32:52;;;;;;;13.00;3.05;;;;;;;;;;5085760;28;20446;-60
2023/08/16 08:36:32;;;;;;;14.18;3.42;;;;;;;;;;5073146;28;20076;-61
2023/08/16 08:40:13;;;;;;;12.85;3.35;;;;;;;;;;5081618;28;20346;-65
2023/08/16 08:43:53;;;;;;;18.00;3.72;;;;;;;;;;5081993;28;20052;-63
2023/08/16 08:47:33;;;;;;;10.82;3.15;;;;;;;;;;5080260;28;20040;-63
2023/08/16 08:51:13;;;;;;;15.50;3.40;;;;;;;;;;5077382;28;20634;-63
2023/08/16 08:54:54;;;;;;;12.50;3.45;;;;;;;;;;5070578;28;20048;-64
2023/08/16 08:58:34;;;;;;;17.30;3.78;;;;;;;;;;5081432;28;20049;-65
2023/08/16 09:02:04;;;;;;;17.20;3.85;;;;;;;;;;5083498;28;20495;-67
2023/08/16 09:05:12;;;;;;;12.70;3.50;;;;;;;;;;5072400;28;20052;-64
2023/08/16 09:08:51;;;;;;;16.92;3.78;;;;;;;;;;5073548;28;20036;-63
2023/08/16 09:12:31;;;;;;;14.68;3.72;;;;;;;;;;5069501;28;20052;-63
2023/08/16 09:16:11;;;;;;;12.05;3.40;;;;;;;;;;5082081;28;20492;-66
2023/08/16 09:20:07;;;;;;;13.15;3.67;;;;;;;;;;5076546;28;20048;-66
2023/08/16 09:23:47;;;;;;;15.57;3.42;;;;;;;;;;5080841;28;20495;-64
2023/08/16 09:27:28;;;;;;;14.88;3.30;;;;;;;;;;5071168;28;20115;-64
2023/08/16 09:31:07;;;;;;;12.95;3.80;;;;;;;;;;5082557;28;20492;-66
2023/08/16 09:34:48;;;;;;;12.10;3.28;;;;;;;;;;5080741;28;20039;-68
2023/08/16 09:38:28;;;;;;;10.90;3.05;;;;;;;;;;5078852;28;20040;-66
2023/08/16 09:42:08;;;;;;;18.50;3.72;;;;;;;;;;5088022;28;20256;-63
2023/08/16 09:45:52;;;;;;;14.05;3.22;;;;;;;;;;5078206;28;20450;-66
2023/08/16 09:49:32;;;;;;;10.50;3.33;;;;;;;;;;5076136;28;20488;-66
2023/08/16 09:53:12;;;;;;;12.80;3.10;;;;;;;;;;5084935;28;20039;-65
2023/08/16 09:56:52;;;;;;;14.65;3.55;;;;;;;;;;5079237;28;20046;-67
2023/08/16 10:00:34;;;;;;;13.75;4.35;;;;;;;;;;5078074;28;20040;-66
2023/08/16 10:04:13;;;;;;;11.38;3.60;;;;;;;;;;5079787;28;20040;-66
2023/08/16 10:07:55;;;;;;;9.68;3.03;;;;;;;;;;5078585;28;20058;-66
2023/08/16 10:11:34;;;;;;;12.77;3.35;;;;;;;;;;5087037;28;20821;-69
2023/08/16 10:15:14;;;;;;;12.40;3.47;;;;;;;;;;5072782;28;20131;-65
2023/08/16 10:18:55;;;;;;;12.60;3.67;;;;;;;;;;5085055;28;20476;-66
2023/08/16 10:22:44;;;;;;;13.98;3.42;;;;;;;;;;5075121;28;20036;-67
2023/08/16 10:26:25;;;;;;;8.85;3.10;;;;;;;;;;5076897;28;20070;-67
2023/08/16 10:30:04;;;;;;;14.40;3.58;;;;;;;;;;5070605;28;20084;-66
2023/08/16 10:33:46;;;;;;;15.15;3.55;;;;;;;;;;5073056;28;20043;-65
2023/08/16 10:37:26;;;;;;;9.80;3.40;;;;;;;;;;5077549;28;20044;-65
2023/08/16 10:41:17;;;;;;;13.88;3.00;;;;;;;;;;5082530;28;20066;-65
2023/08/16 10:45:00;;;;;;;22.38;4.10;;;;;;;;;;5078555;28;20759;-64
2023/08/16 10:48:50;;;;;;;13.73;3.53;;;;;;;;;;5080134;28;20622;-65
2023/08/16 10:52:30;;;;;;;10.82;3.33;;;;;;;;;;5076170;28;20051;-65
2023/08/16 10:56:10;;;;;;;14.13;3.75;;;;;;;;;;5081218;28;20070;-64
2023/08/16 10:59:56;;;;;;;11.80;3.13;;;;;;;;;;5077473;28;20377;-64
2023/08/16 11:03:37;;;;;;;10.63;3.15;;;;;;;;;;5088415;28;20059;-64
2023/08/16 11:07:17;;;;;;;14.60;3.22;;;;;;;;;;5087418;28;20040;-63
2023/08/16 11:10:57;;;;;;;12.05;3.60;;;;;;;;;;5071199;28;20067;-63
2023/08/16 11:14:41;;;;;;;16.63;3.38;;;;;;;;;;5079737;28;20036;-64
2023/08/16 11:18:21;;;;;;;10.02;3.25;;;;;;;;;;5075770;28;20059;-62
2023/08/16 11:22:01;;;;;;;12.48;2.97;;;;;;;;;;5075408;28;20522;-63
2023/08/16 11:25:42;;;;;;;11.30;3.08;;;;;;;;;;5074003;28;20075;-62
2023/08/16 11:29:22;;;;;;;13.95;3.42;;;;;;;;;;5078841;28;20044;-63
2023/08/16 11:33:09;;;;;;;16.95;3.70;;;;;;;;;;5071213;28;20075;-64
2023/08/16 11:36:49;;;;;;;19.30;3.58;;;;;;;;;;5076756;28;20412;-61
2023/08/16 11:40:38;;;;;;;17.88;3.40;;;;;;;;;;5077837;28;20056;-62
2023/08/16 11:44:19;;;;;;;10.55;3.25;;;;;;;;;;5077986;28;20040;-61
2023/08/16 11:47:59;;;;;;;11.75;3.08;;;;;;;;;;5074451;28;20050;-62
2023/08/16 11:51:42;;;;;;;12.57;2.95;;;;;;;;;;5075269;28;20052;-63
2023/08/16 11:55:22;;;;;;;11.60;2.72;;;;;;;;;;5070487;28;20071;-61
2023/08/16 11:59:02;;;;;;;11.80;2.80;;;;;;;;;;5077255;28;20505;-63
2023/08/16 12:02:46;;;;;;;13.05;2.92;;;;;;;;;;5072680;28;20070;-62
2023/08/16 12:06:27;;;;;;;10.27;2.92;;;;;;;;;;5077990;28;20081;-62
2023/08/16 12:10:09;;;;;;;12.00;2.88;;;;;;;;;;5075895;28;20125;-62
2023/08/16 12:13:49;;;;;;;13.70;2.88;;;;;;;;;;5077865;28;20044;-62
2023/08/16 12:17:30;;;;;;;13.55;3.08;;;;;;;;;;5080054;28;20097;-62
2023/08/16 12:21:10;;;;;;;11.00;3.40;;;;;;;;;;5077295;28;20052;-62
2023/08/16 12:24:50;;;;;;;12.10;2.92;;;;;;;;;;5076908;28;20044;-62
2023/08/16 12:28:31;;;;;;;10.90;2.88;;;;;;;;;;5078199;28;20056;-64
2023/08/16 12:32:11;;;;;;;10.93;2.60;;;;;;;;;;5077029;28;20048;-62
2023/08/16 12:35:51;;;;;;;12.63;3.08;;;;;;;;;;5070927;28;20075;-61
2023/08/16 12:39:32;;;;;;;11.35;3.15;;;;;;;;;;5078377;28;20126;-64
2023/08/16 12:43:12;;;;;;;13.05;2.88;;;;;;;;;;5073971;28;20114;-63
2023/08/16 12:46:53;;;;;;;11.95;2.63;;;;;;;;;;5068895;28;20488;-59
2023/08/16 12:50:33;;;;;;;14.27;3.22;;;;;;;;;;5070499;28;20044;-60
2023/08/16 12:54:13;;;;;;;9.23;2.80;;;;;;;;;;5069287;28;20043;-63
2023/08/16 12:57:54;;;;;;;11.10;2.60;;;;;;;;;;5071575;28;20520;-63
2023/08/16 13:01:34;;;;;;;11.15;2.88;;;;;;;;;;5070914;28;20051;-61
2023/08/16 13:05:16;;;;;;;8.10;2.70;;;;;;;;;;5067965;28;20052;-57
2023/08/16 13:08:55;;;;;;;11.15;2.90;;;;;;;;;;5069359;28;20082;-63
2023/08/16 13:12:35;;;;;;;12.45;3.13;;;;;;;;;;5072577;28;20060;-62
2023/08/16 13:16:16;;;;;;;10.40;2.80;;;;;;;;;;5066623;28;20627;-60
2023/08/16 13:19:56;;;;;;;10.57;3.13;;;;;;;;;;5071962;28;20036;-62
2023/08/16 13:23:36;;;;;;;14.95;3.25;;;;;;;;;;5068745;28;20423;-62
2023/08/16 13:27:21;;;;;;;12.00;2.90;;;;;;;;;;5067333;28;20063;-61
2023/08/16 13:31:01;;;;;;;9.93;2.87;;;;;;;;;;5069913;28;20055;-65
2023/08/16 13:34:41;;;;;;;9.93;2.40;;;;;;;;;;5068391;28;20289;-63
2023/08/16 13:38:22;;;;;;;11.18;2.60;;;;;;;;;;5064524;28;20048;-64
2023/08/16 13:42:02;;;;;;;8.95;2.85;;;;;;;;;;5074436;28;20134;-63
2023/08/16 13:45:43;;;;;;;10.95;2.25;;;;;;;;;;5076693;28;20044;-62
2023/08/16 13:49:23;;;;;;;10.70;2.65;;;;;;;;;;5071211;28;20052;-62
2023/08/16 13:53:05;;;;;;;10.55;2.72;;;;;;;;;;5076775;28;20053;-63
2023/08/16 13:56:47;;;;;;;14.20;3.17;;;;;;;;;;5076010;28;20051;-63
2023/08/16 14:00:27;;;;;;;8.25;2.20;;;;;;;;;;5078091;28;20063;-61
2023/08/16 14:04:07;;;;;;;7.43;2.58;;;;;;;;;;5080456;28;20384;-60
2023/08/16 14:07:47;;;;;;;6.85;2.38;;;;;;;;;;5076421;28;20067;-60
2023/08/16 14:11:31;;;;;;;7.00;1.98;;;;;;;;;;5082405;28;20556;-62
2023/08/16 14:15:11;;;;;;;7.93;2.85;;;;;;;;;;5083042;28;20057;-60
2023/08/16 14:18:52;;;;;;;7.88;2.45;;;;;;;;;;5075425;28;20063;-59
2023/08/16 14:22:32;;;;;;;10.70;2.65;;;;;;;;;;5087863;28;20402;-59
2023/08/16 14:26:15;;;;;;;10.90;2.67;;;;;;;;;;5075258;28;20043;-62
2023/08/16 14:29:52;;;;;;;11.40;2.45;;;;;;;;;;5088154;28;20421;-61
2023/08/16 14:33:33;;;;;;;6.35;2.55;;;;;;;;;;5080173;28;20468;-61
2023/08/16 14:37:13;;;;;;;14.30;2.90;;;;;;;;;;5078199;28;20565;-62
2023/08/16 14:40:54;;;;;;;9.40;2.50;;;;;;;;;;5069304;28;20124;-62
2023/08/16 14:44:34;;;;;;;9.25;3.00;;;;;;;;;;5073242;28;20048;-62
2023/08/16 14:48:14;;;;;;;11.48;2.83;;;;;;;;;;5074462;28;20044;-61
2023/08/16 14:51:55;;;;;;;9.73;2.08;;;;;;;;;;5072675;28;20119;-61
2023/08/16 14:55:35;;;;;;;7.00;2.10;;;;;;;;;;5073217;28;20055;-62
2023/08/16 14:59:15;;;;;;;8.23;2.30;;;;;;;;;;5067966;28;20625;-65
2023/08/16 15:02:56;;;;;;;6.20;2.10;;;;;;;;;;5073765;28;20048;-64
2023/08/16 15:06:36;;;;;;;7.13;2.40;;;;;;;;;;5068336;28;20491;-64
2023/08/16 15:10:16;;;;;;;9.45;2.03;;;;;;;;;;5073891;28;20099;-62
2023/08/16 15:13:57;;;;;;;6.72;2.40;;;;;;;;;;5075516;28;20131;-63
2023/08/16 15:17:37;;;;;;;6.97;2.20;;;;;;;;;;5068916;28;20078;-62
2023/08/16 15:21:17;;;;;;;9.93;2.22;;;;;;;;;;5071011;28;20051;-62
2023/08/16 15:24:59;;;;;;;8.63;2.30;;;;;;;;;;5074004;28;20094;-63
2023/08/16 15:28:38;;;;;;;9.57;2.30;;;;;;;;;;5073347;28;20056;-63
2023/08/16 15:32:18;;;;;;;8.05;2.30;;;;;;;;;;5062034;28;20048;-63
2023/08/16 15:35:59;;;;;;;8.20;2.30;;;;;;;;;;5056769;28;21447;-63
2023/08/16 15:39:40;;;;;;;4.70;2.00;;;;;;;;;;5057046;28;20087;-62
2023/08/16 15:43:20;;;;;;;5.82;2.22;;;;;;;;;;5053555;28;20048;-63
2023/08/16 15:47:00;;;;;;;8.63;2.30;;;;;;;;;;5060028;28;20423;-61
2023/08/16 15:50:40;;;;;;;5.45;1.92;;;;;;;;;;5058816;28;20075;-61
2023/08/16 15:54:21;;;;;;;6.30;2.20;;;;;;;;;;5059659;28;20067;-60
2023/08/16 15:58:01;;;;;;;11.48;2.50;;;;;;;;;;5061029;28;20044;-62
2023/08/16 16:01:41;;;;;;;8.13;2.28;;;;;;;;;;5072155;28;20059;-62
2023/08/16 16:05:21;;;;;;;7.25;2.30;;;;;;;;;;5070604;28;20092;-62
2023/08/16 16:09:02;;;;;;;10.00;2.40;;;;;;;;;;5082417;28;20056;-62
2023/08/16 16:12:42;;;;;;;11.73;2.30;;;;;;;;;;5083962;28;20503;-61
2023/08/16 16:16:23;;;;;;;8.60;2.53;;;;;;;;;;5073596;28;20902;-62
2023/08/16 16:20:03;;;;;;;9.75;2.85;;;;;;;;;;5079952;28;20070;-62
2023/08/16 16:23:43;;;;;;;7.82;2.70;;;;;;;;;;5076042;28;20435;-60
2023/08/16 16:27:24;;;;;;;9.75;2.65;;;;;;;;;;5074785;28;20040;-61
2023/08/16 16:31:04;;;;;;;6.35;2.17;;;;;;;;;;5075782;28;20420;-62
2023/08/16 16:34:44;;;;;;;5.72;2.33;;;;;;;;;;5084517;28;20488;-60
2023/08/16 16:38:25;;;;;;;5.20;2.00;;;;;;;;;;5080592;28;20040;-60
2023/08/16 16:42:05;;;;;;;14.85;6.00;;;;;;;;;;5079734;28;20716;-59
2023/08/16 16:45:46;;;;;;;8.35;2.20;;;;;;;;;;5076410;28;20114;-56
2023/08/16 16:49:26;;;;;;;4.50;2.05;;;;;;;;;;5079425;28;20066;-57
2023/08/16 16:53:06;;;;;;;6.32;2.08;;;;;;;;;;5082457;28;20471;-58
2023/08/16 16:56:47;;;;;;;11.98;2.40;;;;;;;;;;5080676;28;20052;-57
2023/08/16 17:00:27;;;;;;;5.13;2.05;;;;;;;;;;5083618;28;20070;-56
2023/08/16 17:04:07;;;;;;;9.45;2.45;;;;;;;;;;5083434;28;20044;-58
2023/08/16 17:07:48;;;;;;;10.02;2.60;;;;;;;;;;5082570;28;20071;-55
2023/08/16 17:11:28;;;;;;;7.28;2.22;;;;;;;;;;5070623;28;20458;-60
2023/08/16 17:15:09;;;;;;;8.90;2.60;;;;;;;;;;5082394;28;20052;-60
2023/08/16 17:18:49;;;;;;;9.07;2.60;;;;;;;;;;5073884;28;20102;-59
2023/08/16 17:22:35;;;;;;;9.15;2.28;;;;;;;;;;5077218;28;20139;-59
2023/08/16 17:26:10;;;;;;;9.60;2.35;;;;;;;;;;5080510;28;20438;-61
2023/08/16 17:29:50;;;;;;;8.10;2.30;;;;;;;;;;5078082;28;20043;-61
2023/08/16 17:33:30;;;;;;;8.65;2.28;;;;;;;;;;5077864;28;20083;-58
2023/08/16 17:37:11;;;;;;;11.45;2.80;;;;;;;;;;5074608;28;20056;-59
2023/08/16 17:40:52;;;;;;;5.57;2.55;;;;;;;;;;5073794;28;20067;-57
2023/08/16 17:44:32;;;;;;;8.50;2.20;;;;;;;;;;5087047;28;20040;-56
2023/08/16 17:47:32;;;;;;;7.45;2.40;;;;;;;;;;5069709;28;20049;-59
2023/08/16 17:49:58;;;;;;;7.85;2.60;;;;;;;;;;5082868;28;20048;-56
2023/08/16 17:52:24;;;;;;;7.05;2.33;;;;;;;;;;5090065;28;20058;-58
2023/08/16 17:54:50;;;;;;;9.88;2.60;;;;;;;;;;5083450;28;20048;-58
2023/08/16 17:57:16;;;;;;;8.15;2.75;;;;;;;;;;5076962;28;20205;-59
2023/08/16 17:59:42;;;;;;;7.07;2.10;;;;;;;;;;5079523;28;20672;-59
2023/08/16 18:02:09;;;;;;;7.13;2.60;;;;;;;;;;5073208;28;20144;-56
2023/08/16 18:04:35;;;;;;;7.25;2.50;;;;;;;;;;5077455;28;20687;-56
2023/08/16 18:07:01;;;;;;;5.97;2.42;;;;;;;;;;5084774;28;20048;-57
2023/08/16 18:09:30;;;;;;;8.80;2.78;;;;;;;;;;5084590;28;20048;-55
2023/08/16 18:11:57;;;;;;;7.82;2.50;;;;;;;;;;5082474;28;20062;-58
2023/08/16 18:14:23;;;;;;;7.10;2.35;;;;;;;;;;5081034;28;20439;-59
2023/08/16 18:16:48;;;;;;;8.60;2.70;;;;;;;;;;5075112;28;20052;-60
2023/08/16 18:19:14;;;;;;;8.20;2.50;;;;;;;;;;5082792;28;20435;-57
2023/08/16 18:21:40;;;;;;;9.05;2.90;;;;;;;;;;5087655;28;20167;-60
2023/08/16 18:24:06;;;;;;;12.10;2.85;;;;;;;;;;5079142;28;20103;-59
2023/08/16 18:26:32;;;;;;;8.30;2.58;;;;;;;;;;5084404;28;20534;-60
2023/08/16 18:28:58;;;;;;;9.70;2.80;;;;;;;;;;5083777;28;20040;-61
2023/08/16 18:31:24;;;;;;;9.13;2.75;;;;;;;;;;5088035;28;20460;-55
2023/08/16 18:33:50;;;;;;;12.98;2.92;;;;;;;;;;5088358;28;20040;-59
2023/08/16 18:36:17;;;;;;;7.30;2.90;;;;;;;;;;5081015;28;20047;-61
2023/08/16 18:38:43;;;;;;;10.02;2.53;;;;;;;;;;5087730;28;20208;-59
2023/08/16 18:41:08;;;;;;;10.52;2.78;;;;;;;;;;5084250;28;20048;-58
2023/08/16 18:43:35;;;;;;;11.18;2.60;;;;;;;;;;5084375;28;20047;-59
2023/08/16 18:46:01;;;;;;;7.68;2.40;;;;;;;;;;5079751;28;20044;-58
2023/08/16 18:48:27;;;;;;;7.25;2.63;;;;;;;;;;5085259;28;20059;-60
2023/08/16 18:50:53;;;;;;;11.48;2.88;;;;;;;;;;5085825;28;20664;-54
2023/08/16 18:53:19;;;;;;;10.50;2.30;;;;;;;;;;5089017;28;20357;-58
2023/08/16 18:55:46;;;;;;;8.38;2.63;;;;;;;;;;5087878;28;20492;-57
2023/08/16 18:58:13;;;;;;;11.25;3.20;;;;;;;;;;5079281;28;20047;-58
2023/08/16 19:00:41;;;;;;;11.60;3.10;;;;;;;;;;5084132;28;20048;-56
2023/08/16 19:03:08;;;;;;;10.18;2.70;;;;;;;;;;5087203;28;20052;-57
2023/08/16 19:05:40;;;;;;;14.13;2.90;;;;;;;;;;5084145;28;20051;-59
2023/08/16 19:08:07;;;;;;;8.75;2.53;;;;;;;;;;5079896;28;20074;-59